Aviation Digital Data Service (ADDS)

Output produced by METARs form (1153 UTC 18 June 2019)
found at http://www.aviationweather.gov/metar/data/
 
METAR text: FAGM 180700Z 19005KT CAVOK 12/M04 Q1032
Conditions at: FAGM (JOHANNESBURG/RAN, ZA) observed 0700 UTC 18 June 2019
Temperature: 12.0°C (54°F)
Dewpoint: -4.0°C (25°F) [RH = 32%]
Pressure (altimeter): 30.47 inches Hg (1032.0 mb)
Winds: from the S (190 degrees) at 6 MPH (5 knots; 2.6 m/s)
Visibility: 6 or more miles (10+ km)
Ceiling: ceiling and visibility are OK
Clouds: unknown
Weather: no significant weather observed at this time

METAR text: FAGM 180500Z VRB04KT CAVOK 06/M05 Q1030
Conditions at: FAGM (JOHANNESBURG/RAN, ZA) observed 0500 UTC 18 June 2019
Temperature: 6.0°C (43°F)
Dewpoint: -5.0°C (23°F) [RH = 45%]
Pressure (altimeter): 30.41 inches Hg (1030.0 mb)
Winds: variable direction winds at 5 MPH (4 knots; 2.1 m/s)
Visibility: 6 or more miles (10+ km)
Ceiling: ceiling and visibility are OK
Clouds: unknown
Weather: no significant weather observed at this time

METAR text: FAGM 180400Z VRB03KT CAVOK 06/M05 Q1030
Conditions at: FAGM (JOHANNESBURG/RAN, ZA) observed 0400 UTC 18 June 2019
Temperature: 6.0°C (43°F)
Dewpoint: -5.0°C (23°F) [RH = 45%]
Pressure (altimeter): 30.41 inches Hg (1030.0 mb)
Winds: variable direction winds at 3 MPH (3 knots; 1.5 m/s)
Visibility: 6 or more miles (10+ km)
Ceiling: ceiling and visibility are OK
Clouds: unknown
Weather: no significant weather observed at this time

METAR text: FAGM 170700Z 07005KT CAVOK 11/M01 Q1032
Conditions at: FAGM (JOHANNESBURG/RAN, ZA) observed 0700 UTC 17 June 2019
Temperature: 11.0°C (52°F)
Dewpoint: -1.0°C (30°F) [RH = 43%]
Pressure (altimeter): 30.47 inches Hg (1032.0 mb)
Winds: from the ENE (70 degrees) at 6 MPH (5 knots; 2.6 m/s)
Visibility: 6 or more miles (10+ km)
Ceiling: ceiling and visibility are OK
Clouds: unknown
Weather: no significant weather observed at this time

METAR text: FAGM 170600Z VRB03KT CAVOK 10/M02 Q1031
Conditions at: FAGM (JOHANNESBURG/RAN, ZA) observed 0600 UTC 17 June 2019
Temperature: 10.0°C (50°F)
Dewpoint: -2.0°C (28°F) [RH = 43%]
Pressure (altimeter): 30.44 inches Hg (1031.0 mb)
Winds: variable direction winds at 3 MPH (3 knots; 1.5 m/s)
Visibility: 6 or more miles (10+ km)
Ceiling: ceiling and visibility are OK
Clouds: unknown
Weather: no significant weather observed at this time